Time;durP1;ratioP1;P1;durP2;ratioP2;P2;SDS_P1;SDS_P2;PMS_P1;PMS_P2;Temp;Humidity;BMP_temperature;BMP_pressure;BME280_temperature;BME280_humidity;BME280_pressure;Samples;Min_cycle;Max_cycle;Signal;HPM_P1;HPM_P2
2021/10/20 00:01:36;;;;;;;1.10;0.97;;;15.30;99.90;;;;;;5028922;28;20954;-69
2021/10/20 00:04:03;;;;;;;0.80;0.60;;;15.30;99.90;;;;;;5035313;28;20213;-69
2021/10/20 00:06:28;;;;;;;1.07;0.80;;;15.20;99.90;;;;;;5034843;28;20247;-69
2021/10/20 00:08:54;;;;;;;0.80;0.60;;;15.20;99.90;;;;;;5031337;28;21085;-69
2021/10/20 00:11:20;;;;;;;0.70;0.60;;;15.20;99.90;;;;;;5031253;28;20198;-70
2021/10/20 00:13:46;;;;;;;0.80;0.70;;;15.20;99.90;;;;;;5018085;28;20528;-70
2021/10/20 00:16:12;;;;;;;0.70;0.60;;;15.20;99.90;;;;;;5014929;28;20598;-69
2021/10/20 00:18:39;;;;;;;2.10;0.87;;;15.20;99.90;;;;;;5030080;28;20523;-68
2021/10/20 00:21:05;;;;;;;0.70;0.60;;;15.20;99.90;;;;;;5031889;28;20433;-68
2021/10/20 00:23:31;;;;;;;1.00;0.90;;;15.20;99.90;;;;;;5017877;28;20959;-69
2021/10/20 00:25:57;;;;;;;1.63;0.70;;;15.20;99.90;;;;;;5013778;28;20537;-69
2021/10/20 00:28:22;;;;;;;0.90;0.90;;;15.20;99.90;;;;;;5028678;28;20258;-70
2021/10/20 00:30:48;;;;;;;0.70;0.60;;;15.20;99.90;;;;;;5023930;28;20176;-71
2021/10/20 00:33:13;;;;;;;0.80;0.60;;;15.30;99.90;;;;;;5034699;28;20167;-70
2021/10/20 00:35:39;;;;;;;1.17;0.63;;;15.20;99.90;;;;;;5033787;28;20199;-70
2021/10/20 00:38:04;;;;;;;0.80;0.73;;;15.20;99.90;;;;;;5034573;28;20210;-70
2021/10/20 00:40:30;;;;;;;0.70;0.50;;;15.20;99.90;;;;;;5025154;28;20184;-70
2021/10/20 00:42:55;;;;;;;0.90;0.90;;;15.20;99.90;;;;;;5023418;28;20607;-68
2021/10/20 00:45:21;;;;;;;2.53;2.37;;;15.10;99.90;;;;;;5020601;28;20196;-70
2021/10/20 00:47:46;;;;;;;0.70;0.50;;;15.00;99.90;;;;;;5019765;28;20188;-68
2021/10/20 00:50:13;;;;;;;0.90;0.80;;;15.00;99.90;;;;;;5026636;28;20206;-71
2021/10/20 00:52:41;;;;;;;1.30;1.10;;;15.00;99.90;;;;;;5030343;28;20179;-70
2021/10/20 00:55:07;;;;;;;0.80;0.70;;;15.00;99.90;;;;;;5029776;28;20474;-70
2021/10/20 00:57:34;;;;;;;1.07;0.60;;;14.90;99.90;;;;;;5014468;28;20427;-70
2021/10/20 01:00:03;;;;;;;0.70;0.50;;;14.80;99.90;;;;;;5024780;28;20488;-70
2021/10/20 01:02:29;;;;;;;0.80;0.70;;;14.80;99.90;;;;;;5023154;28;20832;-69
2021/10/20 01:04:54;;;;;;;0.70;0.60;;;14.80;99.90;;;;;;5014986;28;20526;-69
2021/10/20 01:07:22;;;;;;;0.80;0.67;;;14.80;99.90;;;;;;5022226;28;20246;-70
2021/10/20 01:09:48;;;;;;;0.70;0.50;;;14.70;99.90;;;;;;5030724;28;20253;-70
2021/10/20 01:12:16;;;;;;;0.70;0.70;;;14.60;99.90;;;;;;5014239;28;20403;-70
2021/10/20 01:14:43;;;;;;;0.70;0.60;;;14.60;99.90;;;;;;5014028;28;20189;-70
2021/10/20 01:17:08;;;;;;;0.70;0.50;;;14.50;99.90;;;;;;5026600;28;20430;-69
2021/10/20 01:19:35;;;;;;;0.70;0.50;;;14.50;99.90;;;;;;5032533;28;20445;-70
2021/10/20 01:22:01;;;;;;;0.70;0.50;;;14.50;99.90;;;;;;5027067;28;20179;-69
2021/10/20 01:24:27;;;;;;;1.53;1.13;;;14.50;99.90;;;;;;5024003;28;20443;-71
2021/10/20 01:26:54;;;;;;;0.70;0.60;;;14.60;99.90;;;;;;5029836;28;20448;-71
2021/10/20 01:29:21;;;;;;;1.23;1.13;;;14.50;99.90;;;;;;5032418;28;20211;-70
2021/10/20 01:31:49;;;;;;;3.80;1.90;;;14.60;99.90;;;;;;5033103;28;20413;-69
2021/10/20 01:34:14;;;;;;;0.70;0.50;;;14.60;99.90;;;;;;5021167;28;20426;-70
2021/10/20 01:36:41;;;;;;;1.43;1.33;;;14.60;99.90;;;;;;5032679;28;20450;-70
2021/10/20 01:39:07;;;;;;;0.70;0.60;;;14.60;99.90;;;;;;5033224;28;20167;-70
2021/10/20 01:41:33;;;;;;;1.30;1.20;;;14.60;99.90;;;;;;5018725;28;20991;-70
2021/10/20 01:43:59;;;;;;;0.70;0.60;;;14.60;99.90;;;;;;5030452;28;20183;-70
2021/10/20 01:46:25;;;;;;;0.70;0.60;;;14.70;99.90;;;;;;5031793;28;20454;-70
2021/10/20 01:48:51;;;;;;;2.40;1.47;;;14.60;99.90;;;;;;5031420;28;20203;-70
2021/10/20 01:51:16;;;;;;;0.80;0.70;;;14.70;99.90;;;;;;5032050;28;20178;-70
2021/10/20 01:53:43;;;;;;;0.93;0.90;;;14.70;99.90;;;;;;5031812;28;20234;-71
2021/10/20 01:56:11;;;;;;;0.70;0.50;;;14.70;99.90;;;;;;5032767;28;20577;-70
2021/10/20 01:58:36;;;;;;;1.40;1.30;;;14.80;99.90;;;;;;5032673;28;20442;-70
2021/10/20 02:01:07;;;;;;;0.70;0.60;;;14.90;99.90;;;;;;5032453;28;20809;-70
2021/10/20 02:03:34;;;;;;;1.10;0.70;;;14.90;99.90;;;;;;5029806;28;20337;-70
2021/10/20 02:06:01;;;;;;;1.20;1.10;;;14.90;99.90;;;;;;5031937;28;20939;-70
2021/10/20 02:08:26;;;;;;;0.77;0.63;;;14.80;99.90;;;;;;5032892;28;20445;-70
2021/10/20 02:10:52;;;;;;;0.70;0.50;;;14.80;99.90;;;;;;5032853;28;20775;-70
2021/10/20 02:13:17;;;;;;;1.83;1.03;;;14.80;99.90;;;;;;5032327;28;20186;-70
2021/10/20 02:15:43;;;;;;;2.23;1.23;;;14.80;99.90;;;;;;5013971;28;20192;-70
2021/10/20 02:18:08;;;;;;;0.70;0.50;;;14.80;99.90;;;;;;5022265;28;20183;-70
2021/10/20 02:20:34;;;;;;;0.70;0.60;;;14.80;99.90;;;;;;5032785;28;20175;-70
2021/10/20 02:23:00;;;;;;;0.70;0.57;;;14.90;99.90;;;;;;5031533;28;20318;-70
2021/10/20 02:25:25;;;;;;;0.80;0.67;;;15.00;99.90;;;;;;5031282;28;20188;-70
2021/10/20 02:27:51;;;;;;;0.70;0.50;;;15.00;99.90;;;;;;5023285;28;20206;-70
2021/10/20 02:30:17;;;;;;;0.70;0.50;;;15.00;99.90;;;;;;5031727;28;20262;-70
2021/10/20 02:32:43;;;;;;;0.70;0.60;;;15.00;99.90;;;;;;5030561;28;20547;-70
2021/10/20 02:35:10;;;;;;;0.70;0.60;;;15.00;99.90;;;;;;5031579;28;20457;-70
2021/10/20 02:37:36;;;;;;;0.70;0.57;;;15.00;99.90;;;;;;5027044;28;20172;-70
2021/10/20 02:40:04;;;;;;;1.93;1.83;;;15.00;99.90;;;;;;5026486;28;20430;-71
2021/10/20 02:42:29;;;;;;;0.80;0.63;;;15.00;99.90;;;;;;5020313;28;20954;-70
2021/10/20 02:44:55;;;;;;;0.90;0.90;;;15.10;99.90;;;;;;5031744;28;20438;-70
2021/10/20 02:47:21;;;;;;;1.13;0.90;;;15.10;99.90;;;;;;5016858;28;20550;-70
2021/10/20 02:49:46;;;;;;;0.70;0.50;;;15.20;99.90;;;;;;5031104;28;20268;-70
2021/10/20 02:52:12;;;;;;;1.00;0.77;;;15.20;99.90;;;;;;5030526;28;20183;-70
2021/10/20 02:54:37;;;;;;;1.07;0.97;;;15.20;99.90;;;;;;5030665;28;20202;-70
2021/10/20 02:57:03;;;;;;;1.53;1.43;;;15.20;99.90;;;;;;5029902;28;20187;-70
2021/10/20 02:59:29;;;;;;;0.80;0.70;;;15.20;99.90;;;;;;5031563;28;20180;-70
2021/10/20 03:01:54;;;;;;;0.80;0.63;;;15.20;99.90;;;;;;5031343;28;20950;-70
2021/10/20 03:04:20;;;;;;;0.90;0.70;;;15.10;99.90;;;;;;5032136;28;20168;-70
2021/10/20 03:06:45;;;;;;;0.80;0.70;;;15.00;99.90;;;;;;5031361;28;20191;-70
2021/10/20 03:09:11;;;;;;;1.53;0.80;;;15.00;99.90;;;;;;5029397;28;20199;-70
2021/10/20 03:11:36;;;;;;;0.80;0.67;;;14.90;99.90;;;;;;5032105;28;20210;-70
2021/10/20 03:14:02;;;;;;;0.70;0.60;;;14.90;99.90;;;;;;5030847;28;20620;-70
2021/10/20 03:16:27;;;;;;;0.90;0.80;;;14.80;99.90;;;;;;5031489;28;20191;-70
2021/10/20 03:18:54;;;;;;;0.80;0.70;;;14.80;99.90;;;;;;5030803;28;20182;-70
2021/10/20 03:21:20;;;;;;;1.00;0.80;;;14.80;99.90;;;;;;5031379;28;20232;-70
2021/10/20 03:23:45;;;;;;;0.70;0.50;;;14.80;99.90;;;;;;5030274;28;20434;-70
2021/10/20 03:26:11;;;;;;;0.80;0.60;;;14.70;99.90;;;;;;5031002;28;20203;-70
2021/10/20 03:28:36;;;;;;;1.00;0.90;;;14.70;99.90;;;;;;5027298;28;20195;-70
2021/10/20 03:31:02;;;;;;;0.83;0.83;;;14.60;99.90;;;;;;5031108;28;20182;-70
2021/10/20 03:33:27;;;;;;;1.03;0.70;;;14.60;99.90;;;;;;5031561;28;20175;-70
2021/10/20 03:35:53;;;;;;;0.87;0.70;;;14.60;99.90;;;;;;5028171;28;20331;-70
2021/10/20 03:38:18;;;;;;;0.70;0.60;;;14.60;99.90;;;;;;5024287;28;20251;-70
2021/10/20 03:40:44;;;;;;;1.37;0.77;;;14.50;99.90;;;;;;5031670;28;20163;-71
2021/10/20 03:43:09;;;;;;;0.70;0.53;;;14.50;99.90;;;;;;5030046;28;20191;-70
2021/10/20 03:45:35;;;;;;;0.70;0.60;;;14.50;99.90;;;;;;5029925;28;20187;-70
2021/10/20 03:48:00;;;;;;;1.47;1.00;;;14.50;99.90;;;;;;5031061;28;20274;-70
2021/10/20 03:50:26;;;;;;;4.30;2.90;;;14.50;99.90;;;;;;5031606;28;20611;-70
2021/10/20 03:52:52;;;;;;;1.17;1.07;;;14.50;99.90;;;;;;5030610;28;20176;-70
2021/10/20 03:55:18;;;;;;;1.47;1.00;;;14.40;99.90;;;;;;5029956;28;20873;-70
2021/10/20 03:57:43;;;;;;;0.90;0.57;;;14.40;99.90;;;;;;5029948;28;20191;-70
2021/10/20 04:00:12;;;;;;;1.47;1.30;;;14.40;99.90;;;;;;5031542;28;20247;-70
2021/10/20 04:02:42;;;;;;;0.80;0.60;;;14.30;99.90;;;;;;5035167;28;20175;-70
2021/10/20 04:05:12;;;;;;;2.00;0.90;;;14.30;99.90;;;;;;5034325;28;20465;-70
2021/10/20 04:07:42;;;;;;;1.20;0.67;;;14.30;99.90;;;;;;5028962;28;20453;-70
2021/10/20 04:10:11;;;;;;;0.70;0.50;;;14.20;99.90;;;;;;5033875;28;20873;-71
2021/10/20 04:12:36;;;;;;;0.70;0.60;;;14.20;99.90;;;;;;5026231;28;20418;-70
2021/10/20 04:15:03;;;;;;;0.70;0.60;;;14.20;99.90;;;;;;5014952;28;20415;-70
2021/10/20 04:17:28;;;;;;;1.57;0.87;;;14.20;99.90;;;;;;5026462;28;20199;-70
2021/10/20 04:19:54;;;;;;;0.80;0.70;;;14.20;99.90;;;;;;5016331;28;20453;-70
2021/10/20 04:22:20;;;;;;;1.47;0.70;;;14.20;99.90;;;;;;5022513;28;20175;-70
2021/10/20 04:24:45;;;;;;;0.80;0.60;;;14.20;99.90;;;;;;5034060;28;20507;-70
2021/10/20 04:27:11;;;;;;;1.60;0.83;;;14.30;99.90;;;;;;5034076;28;20548;-70
2021/10/20 04:29:36;;;;;;;0.70;0.50;;;14.30;99.90;;;;;;5033622;28;20210;-70
2021/10/20 04:32:02;;;;;;;0.80;0.67;;;14.40;99.90;;;;;;5032534;28;20174;-71
2021/10/20 04:34:27;;;;;;;1.00;0.90;;;14.40;99.90;;;;;;5034640;28;20160;-70
2021/10/20 04:36:53;;;;;;;0.80;0.80;;;14.50;99.90;;;;;;5024373;28;20172;-70
2021/10/20 04:39:18;;;;;;;0.80;0.60;;;14.50;99.90;;;;;;5014853;28;20207;-71
2021/10/20 04:41:44;;;;;;;1.27;1.17;;;14.50;99.90;;;;;;5014805;28;20576;-70
2021/10/20 04:44:09;;;;;;;1.00;0.70;;;14.60;99.90;;;;;;5033309;28;20179;-70
2021/10/20 04:46:35;;;;;;;0.70;0.50;;;14.60;99.90;;;;;;5034118;28;20191;-70
2021/10/20 04:49:01;;;;;;;1.17;1.07;;;14.60;99.90;;;;;;5032559;28;20302;-70
2021/10/20 04:51:26;;;;;;;6.63;1.63;;;14.70;99.90;;;;;;5033412;28;20175;-70
2021/10/20 04:53:52;;;;;;;0.80;0.77;;;14.70;99.90;;;;;;5032686;28;20179;-70
2021/10/20 04:56:17;;;;;;;0.70;0.60;;;14.70;99.90;;;;;;5032943;28;20604;-70
2021/10/20 04:58:43;;;;;;;0.73;0.57;;;14.70;99.90;;;;;;5034280;28;20167;-71
2021/10/20 05:01:08;;;;;;;1.10;1.00;;;14.80;99.90;;;;;;5032495;28;20660;-70
2021/10/20 05:03:34;;;;;;;0.80;0.70;;;14.80;99.90;;;;;;5034208;28;20176;-70
2021/10/20 05:05:59;;;;;;;0.80;0.80;;;14.90;99.90;;;;;;5033053;28;20191;-70
2021/10/20 05:08:25;;;;;;;1.37;1.27;;;14.90;99.90;;;;;;5026263;28;20200;-70
2021/10/20 05:10:51;;;;;;;1.10;0.80;;;15.00;99.90;;;;;;5024798;28;20263;-70
2021/10/20 05:13:16;;;;;;;1.00;0.60;;;15.00;99.90;;;;;;5027556;28;21004;-71
2021/10/20 05:15:42;;;;;;;0.70;0.50;;;15.00;99.90;;;;;;5032889;28;20183;-70
2021/10/20 05:18:10;;;;;;;0.90;0.60;;;15.10;99.90;;;;;;5032672;28;20190;-71
2021/10/20 05:20:36;;;;;;;1.33;0.90;;;15.20;99.90;;;;;;5032076;28;20438;-69
2021/10/20 05:23:02;;;;;;;0.87;0.80;;;15.20;99.90;;;;;;5032735;28;20431;-70
2021/10/20 05:25:28;;;;;;;0.80;0.70;;;15.30;99.90;;;;;;5033443;28;20479;-70
2021/10/20 05:27:53;;;;;;;1.90;0.80;;;15.30;99.90;;;;;;5032878;28;20466;-70
2021/10/20 05:30:19;;;;;;;0.80;0.70;;;15.30;99.90;;;;;;5031798;28;20179;-70
2021/10/20 05:32:45;;;;;;;1.00;0.87;;;15.30;99.90;;;;;;5033002;28;20667;-70
2021/10/20 05:35:17;;;;;;;1.47;1.23;;;15.30;99.90;;;;;;5032326;28;20450;-70
2021/10/20 05:37:43;;;;;;;0.80;0.73;;;15.30;99.90;;;;;;5025261;28;20168;-70
2021/10/20 05:40:09;;;;;;;1.67;0.70;;;15.30;99.90;;;;;;5029264;28;20443;-70
2021/10/20 05:42:35;;;;;;;2.87;1.23;;;15.30;99.90;;;;;;5017436;28;20211;-70
2021/10/20 05:45:00;;;;;;;2.37;2.20;;;15.30;99.90;;;;;;5032425;28;20500;-70
2021/10/20 05:47:26;;;;;;;2.80;2.60;;;15.30;99.90;;;;;;5032866;28;20187;-70
2021/10/20 05:49:51;;;;;;;1.00;0.90;;;15.30;99.90;;;;;;5032540;28;20282;-70
2021/10/20 05:52:17;;;;;;;1.20;0.97;;;15.30;99.90;;;;;;5031028;28;20168;-70
2021/10/20 05:54:42;;;;;;;1.00;0.90;;;15.30;99.90;;;;;;5031754;28;20245;-71
2021/10/20 05:57:08;;;;;;;1.20;0.80;;;15.30;99.90;;;;;;5014735;28;20180;-70
2021/10/20 05:59:33;;;;;;;0.70;0.60;;;15.40;99.90;;;;;;5017180;28;20183;-70
2021/10/20 06:01:59;;;;;;;1.10;1.00;;;15.40;99.90;;;;;;5031863;28;20556;-70
2021/10/20 06:04:25;;;;;;;0.80;0.80;;;15.40;99.90;;;;;;5032471;28;20191;-70
2021/10/20 06:06:50;;;;;;;3.90;0.70;;;15.40;99.90;;;;;;5030759;28;20222;-70
2021/10/20 06:09:16;;;;;;;0.80;0.63;;;15.40;99.90;;;;;;5032727;28;20191;-70
2021/10/20 06:11:41;;;;;;;0.70;0.57;;;15.40;99.90;;;;;;5030887;28;20221;-70
2021/10/20 06:14:07;;;;;;;0.70;0.50;;;15.40;99.90;;;;;;5027056;28;20560;-70
2021/10/20 06:16:35;;;;;;;1.10;0.77;;;15.40;99.90;;;;;;5016550;28;20663;-70
2021/10/20 06:19:01;;;;;;;0.97;0.70;;;15.40;99.90;;;;;;5014248;28;20180;-70
2021/10/20 06:21:27;;;;;;;3.23;1.33;;;15.40;99.90;;;;;;5012696;28;21040;-70
2021/10/20 06:23:52;;;;;;;2.07;1.73;;;15.50;99.90;;;;;;5029135;28;20657;-70
2021/10/20 06:26:18;;;;;;;1.77;1.53;;;15.50;99.90;;;;;;5025080;28;20196;-70
2021/10/20 06:28:43;;;;;;;1.00;0.70;;;15.50;99.90;;;;;;5018265;28;20294;-70
2021/10/20 06:31:09;;;;;;;1.07;0.60;;;15.50;99.90;;;;;;5024715;28;20191;-70
2021/10/20 06:33:34;;;;;;;1.30;1.20;;;15.50;99.90;;;;;;5032497;28;20243;-69
2021/10/20 06:36:01;;;;;;;0.90;0.80;;;15.50;99.90;;;;;;5023856;28;20728;-70
2021/10/20 06:38:27;;;;;;;0.70;0.60;;;15.50;99.90;;;;;;5012385;28;20180;-69
2021/10/20 06:40:52;;;;;;;0.70;0.60;;;15.60;99.90;;;;;;5012616;28;20740;-70
2021/10/20 06:43:18;;;;;;;0.70;0.70;;;15.50;99.90;;;;;;5038560;28;20176;-70
2021/10/20 06:45:43;;;;;;;0.90;0.80;;;15.50;99.90;;;;;;5021522;28;20207;-71
2021/10/20 06:48:09;;;;;;;1.73;1.50;;;15.50;99.90;;;;;;5023636;28;20254;-70
2021/10/20 06:50:35;;;;;;;0.80;0.60;;;15.60;99.90;;;;;;5030290;28;20675;-70
2021/10/20 06:53:00;;;;;;;0.80;0.70;;;15.60;99.90;;;;;;5030023;28;20179;-70
2021/10/20 06:55:27;;;;;;;1.10;1.00;;;15.60;99.90;;;;;;5030112;28;20196;-69
2021/10/20 06:57:52;;;;;;;2.60;1.57;;;15.60;99.90;;;;;;5031156;28;20544;-70
2021/10/20 07:00:18;;;;;;;0.80;0.70;;;15.70;99.90;;;;;;5030352;28;20430;-70
2021/10/20 07:02:43;;;;;;;1.23;0.87;;;15.70;99.90;;;;;;5025407;28;20259;-69
2021/10/20 07:05:09;;;;;;;0.80;0.70;;;15.70;99.90;;;;;;5012075;28;20196;-70
2021/10/20 07:07:35;;;;;;;1.40;0.80;;;15.80;99.90;;;;;;5028078;28;20183;-71
2021/10/20 07:10:01;;;;;;;1.00;0.83;;;15.80;99.90;;;;;;5032053;28;20256;-69
2021/10/20 07:12:30;;;;;;;1.10;1.00;;;15.80;99.90;;;;;;5031032;28;20183;-70
2021/10/20 07:14:56;;;;;;;0.70;0.50;;;15.80;99.90;;;;;;5031552;28;20430;-70
2021/10/20 07:17:22;;;;;;;1.47;1.30;;;15.80;99.90;;;;;;5030813;28;20441;-70
2021/10/20 07:19:47;;;;;;;1.87;1.37;;;15.80;99.90;;;;;;5030258;28;20500;-70
2021/10/20 07:22:13;;;;;;;0.90;0.50;;;15.80;99.90;;;;;;5030859;28;20599;-70
2021/10/20 07:24:40;;;;;;;1.73;1.27;;;15.80;99.90;;;;;;5029237;28;20266;-70
2021/10/20 07:27:06;;;;;;;0.80;0.60;;;15.80;99.90;;;;;;5031238;28;20195;-68
2021/10/20 07:29:31;;;;;;;0.80;0.60;;;15.80;99.90;;;;;;5031263;28;20465;-69
2021/10/20 07:31:57;;;;;;;0.70;0.60;;;15.90;99.90;;;;;;5012392;28;20230;-70
2021/10/20 07:34:22;;;;;;;0.90;0.80;;;16.00;99.90;;;;;;5031204;28;20182;-70
2021/10/20 07:36:48;;;;;;;2.23;2.07;;;16.00;99.90;;;;;;5032479;28;20186;-70
2021/10/20 07:39:14;;;;;;;0.90;0.70;;;16.10;99.90;;;;;;5034029;28;20270;-69
2021/10/20 07:41:40;;;;;;;0.80;0.70;;;16.20;99.90;;;;;;5030210;28;20199;-69
2021/10/20 07:44:06;;;;;;;1.83;0.80;;;16.20;99.90;;;;;;5032317;28;20641;-70
2021/10/20 07:46:32;;;;;;;0.70;0.53;;;16.30;99.90;;;;;;5035207;28;20440;-69
2021/10/20 07:48:58;;;;;;;0.80;0.73;;;16.40;99.90;;;;;;5027366;28;20467;-70
2021/10/20 07:51:24;;;;;;;1.10;1.00;;;16.50;99.90;;;;;;5015717;28;20403;-69
2021/10/20 07:53:50;;;;;;;0.70;0.57;;;16.60;99.90;;;;;;5031559;28;20684;-68
2021/10/20 07:56:16;;;;;;;1.20;1.10;;;16.60;99.90;;;;;;5024131;28;20215;-68
2021/10/20 07:58:41;;;;;;;1.10;1.00;;;16.60;99.90;;;;;;5030024;28;20191;-69
2021/10/20 08:01:07;;;;;;;2.07;0.90;;;16.60;99.90;;;;;;5028356;28;20187;-69
2021/10/20 08:03:32;;;;;;;0.70;0.60;;;16.70;99.90;;;;;;5035262;28;20175;-68
2021/10/20 08:05:58;;;;;;;1.30;1.20;;;16.70;99.90;;;;;;5034844;28;20278;-68
2021/10/20 08:08:23;;;;;;;1.77;1.63;;;16.80;99.90;;;;;;5029973;28;20563;-69
2021/10/20 08:10:49;;;;;;;0.70;0.60;;;16.90;99.90;;;;;;5022748;28;20229;-70
2021/10/20 08:13:15;;;;;;;1.13;1.03;;;16.90;99.90;;;;;;5033882;28;20175;-70
2021/10/20 08:15:42;;;;;;;1.20;1.10;;;16.90;99.90;;;;;;5034065;28;20199;-70
2021/10/20 08:18:08;;;;;;;1.27;1.17;;;16.90;99.90;;;;;;5034486;28;20692;-70
2021/10/20 08:20:34;;;;;;;0.80;0.70;;;16.90;99.90;;;;;;5034916;28;20819;-70
2021/10/20 08:23:01;;;;;;;2.73;0.87;;;16.90;99.90;;;;;;5031082;28;20430;-70
2021/10/20 08:25:28;;;;;;;1.47;0.93;;;16.90;99.90;;;;;;5033889;28;20540;-70
2021/10/20 08:27:54;;;;;;;3.27;1.17;;;16.90;99.90;;;;;;5034155;28;20936;-69
2021/10/20 08:30:20;;;;;;;0.70;0.60;;;16.80;99.90;;;;;;5033999;28;20473;-70
2021/10/20 08:32:54;;;;;;;1.33;1.23;;;16.80;99.90;;;;;;5029860;28;20438;-70
2021/10/20 08:35:20;;;;;;;2.03;1.20;;;16.70;99.90;;;;;;5034406;28;20815;-69
2021/10/20 08:37:54;;;;;;;1.17;0.60;;;16.80;99.90;;;;;;5034187;28;20433;-69
2021/10/20 08:40:22;;;;;;;0.77;0.67;;;16.70;99.90;;;;;;5034662;28;20401;-69
2021/10/20 08:42:48;;;;;;;1.30;1.20;;;16.70;99.90;;;;;;5032073;28;20434;-69
2021/10/20 08:45:14;;;;;;;1.20;0.80;;;16.80;99.90;;;;;;5032673;28;20521;-69
2021/10/20 08:47:39;;;;;;;1.03;0.80;;;16.90;99.90;;;;;;5033455;28;20175;-70
2021/10/20 08:50:07;;;;;;;0.70;0.50;;;17.00;99.90;;;;;;5033793;28;20289;-69
2021/10/20 08:52:33;;;;;;;1.50;1.40;;;16.90;99.90;;;;;;5033638;28;20202;-69
2021/10/20 08:55:00;;;;;;;0.70;0.60;;;16.90;99.90;;;;;;5031314;28;20451;-69
2021/10/20 08:57:26;;;;;;;0.90;0.80;;;16.90;99.90;;;;;;5031704;28;20441;-71
2021/10/20 08:59:52;;;;;;;1.43;1.17;;;17.00;99.90;;;;;;5030509;28;20442;-69
2021/10/20 09:02:22;;;;;;;0.90;0.77;;;17.00;99.90;;;;;;5033092;28;20707;-70
2021/10/20 09:04:54;;;;;;;0.70;0.50;;;17.00;99.90;;;;;;5028468;28;20818;-70
2021/10/20 09:07:20;;;;;;;1.13;0.70;;;16.90;99.90;;;;;;5024539;28;20520;-70
2021/10/20 09:09:51;;;;;;;0.83;0.70;;;16.80;99.90;;;;;;5023260;28;20919;-69
2021/10/20 09:12:25;;;;;;;0.80;0.70;;;16.90;99.90;;;;;;5029182;28;20439;-68
2021/10/20 09:14:55;;;;;;;0.90;0.70;;;16.90;99.90;;;;;;5025676;28;20455;-69
2021/10/20 09:17:20;;;;;;;1.00;0.90;;;16.90;99.90;;;;;;5029582;28;20464;-68
2021/10/20 09:19:46;;;;;;;0.70;0.60;;;16.90;99.90;;;;;;5030715;28;20966;-70
2021/10/20 09:22:12;;;;;;;1.47;0.90;;;17.00;99.90;;;;;;5032029;28;20195;-70
2021/10/20 09:24:41;;;;;;;1.37;0.80;;;17.00;99.90;;;;;;5032586;28;20549;-70
2021/10/20 09:27:19;;;;;;;2.10;2.00;;;17.00;99.90;;;;;;5025207;28;20537;-70
2021/10/20 09:29:44;;;;;;;1.63;0.90;;;17.10;99.90;;;;;;5015077;28;20498;-70
2021/10/20 09:32:11;;;;;;;0.90;0.80;;;17.10;99.90;;;;;;5033096;28;20477;-70
2021/10/20 09:34:38;;;;;;;1.47;0.90;;;17.20;99.90;;;;;;5028877;28;20179;-69
2021/10/20 09:37:05;;;;;;;1.20;0.80;;;17.20;99.90;;;;;;5032847;28;20448;-68
2021/10/20 09:39:31;;;;;;;2.37;1.80;;;17.20;99.90;;;;;;5033019;28;20486;-69
2021/10/20 09:42:11;;;;;;;0.87;0.70;;;17.10;99.90;;;;;;5031188;28;20602;-69
2021/10/20 09:44:47;;;;;;;1.70;1.60;;;17.20;99.90;;;;;;5031182;28;20527;-70
2021/10/20 09:47:13;;;;;;;0.90;0.60;;;17.30;99.90;;;;;;5032730;28;20437;-71
2021/10/20 09:49:47;;;;;;;1.60;1.20;;;17.30;99.90;;;;;;5028834;28;20451;-69
2021/10/20 09:52:12;;;;;;;1.03;0.90;;;17.40;99.90;;;;;;5016655;28;20512;-70
2021/10/20 09:54:41;;;;;;;0.93;0.83;;;17.50;99.90;;;;;;5031483;28;20442;-71
2021/10/20 09:57:07;;;;;;;1.30;1.20;;;17.60;99.90;;;;;;5016857;28;20266;-70
2021/10/20 09:59:32;;;;;;;1.30;0.80;;;17.60;99.90;;;;;;5013316;28;20498;-70
2021/10/20 10:01:59;;;;;;;1.07;0.80;;;17.60;99.90;;;;;;5030698;28;20179;-71
2021/10/20 10:04:25;;;;;;;1.20;1.10;;;17.50;99.90;;;;;;5032453;28;20617;-70
2021/10/20 10:06:51;;;;;;;2.20;1.73;;;17.50;99.90;;;;;;5031367;28;20462;-70
2021/10/20 10:09:17;;;;;;;0.80;0.80;;;17.50;99.90;;;;;;5032228;28;20488;-70
2021/10/20 10:12:00;;;;;;;1.37;0.97;;;17.30;99.90;;;;;;5032229;28;20772;-70
2021/10/20 10:14:30;;;;;;;1.20;0.93;;;17.30;99.90;;;;;;5013311;28;20803;-69
2021/10/20 10:17:00;;;;;;;1.00;0.90;;;17.20;99.90;;;;;;5029671;28;20438;-70
2021/10/20 10:19:31;;;;;;;1.10;0.80;;;17.30;99.90;;;;;;5031712;28;21080;-69
2021/10/20 10:21:58;;;;;;;1.27;0.90;;;17.20;99.90;;;;;;5019845;28;20442;-69
2021/10/20 10:24:32;;;;;;;1.90;1.33;;;17.20;99.90;;;;;;5016552;28;20449;-68
2021/10/20 10:27:03;;;;;;;1.00;0.70;;;17.20;99.90;;;;;;5030691;28;20970;-68
2021/10/20 10:29:30;;;;;;;1.10;1.00;;;17.10;99.90;;;;;;5032419;28;20558;-68
2021/10/20 10:32:05;;;;;;;1.30;0.97;;;17.10;99.90;;;;;;5031909;28;20410;-68
2021/10/20 10:34:35;;;;;;;0.87;0.87;;;17.20;99.90;;;;;;5031670;28;20806;-69
2021/10/20 10:37:02;;;;;;;1.10;1.00;;;17.20;99.90;;;;;;5018488;28;20433;-69
2021/10/20 10:39:28;;;;;;;1.50;1.37;;;17.30;99.90;;;;;;5028511;28;20494;-68
2021/10/20 10:42:05;;;;;;;0.97;0.87;;;17.40;99.90;;;;;;5029495;28;20920;-68
2021/10/20 10:44:47;;;;;;;0.70;0.60;;;17.30;99.90;;;;;;5032205;28;20935;-69
2021/10/20 10:47:23;;;;;;;1.23;1.10;;;17.40;99.90;;;;;;5031411;28;20454;-69
2021/10/20 10:49:55;;;;;;;0.93;0.83;;;17.30;99.90;;;;;;5032188;28;20466;-69
2021/10/20 10:52:39;;;;;;;0.70;0.50;;;17.30;99.90;;;;;;5025279;28;20524;-70
2021/10/20 10:55:17;;;;;;;0.80;0.70;;;17.30;99.90;;;;;;5030691;28;20549;-69
2021/10/20 10:58:22;;;;;;;0.80;0.73;;;17.40;99.90;;;;;;5021046;28;20781;-69
2021/10/20 11:00:48;;;;;;;1.53;1.43;;;17.50;99.90;;;;;;5025873;28;20453;-69
2021/10/20 11:03:21;;;;;;;1.77;1.00;;;17.50;99.90;;;;;;5017811;28;20430;-70
2021/10/20 11:05:49;;;;;;;0.90;0.77;;;17.50;99.90;;;;;;5024012;28;21009;-69
2021/10/20 11:08:15;;;;;;;1.17;1.07;;;17.70;99.90;;;;;;5016429;28;20419;-70
2021/10/20 11:10:42;;;;;;;1.00;0.90;;;17.70;99.90;;;;;;5018120;28;20496;-70
2021/10/20 11:13:10;;;;;;;1.93;1.00;;;17.80;99.90;;;;;;5012273;28;20599;-69
2021/10/20 11:15:36;;;;;;;1.10;1.00;;;17.80;99.90;;;;;;5011878;28;20792;-69
2021/10/20 11:18:02;;;;;;;0.70;0.60;;;17.90;99.90;;;;;;5021647;28;20438;-69
2021/10/20 11:20:32;;;;;;;1.43;1.10;;;17.90;99.90;;;;;;5024979;28;20805;-69
2021/10/20 11:23:12;;;;;;;1.67;0.80;;;17.90;99.90;;;;;;5024460;28;20488;-70
2021/10/20 11:25:40;;;;;;;1.63;1.03;;;18.00;99.90;;;;;;5025530;28;21004;-69
2021/10/20 11:28:07;;;;;;;0.70;0.60;;;18.00;99.90;;;;;;5025374;28;20445;-69
2021/10/20 11:30:35;;;;;;;0.80;0.70;;;18.00;99.90;;;;;;5021982;28;20426;-69
2021/10/20 11:33:01;;;;;;;1.40;1.30;;;18.00;99.90;;;;;;5024980;28;20433;-71
2021/10/20 11:35:32;;;;;;;0.90;0.77;;;17.90;99.90;;;;;;5024205;28;20595;-70
2021/10/20 11:38:11;;;;;;;1.83;0.97;;;17.90;99.90;;;;;;5022451;28;21191;-70
2021/10/20 11:40:47;;;;;;;1.73;1.37;;;18.00;99.90;;;;;;5016893;28;22345;-69
2021/10/20 11:43:27;;;;;;;1.43;0.90;;;18.00;99.90;;;;;;5029681;28;20422;-69
2021/10/20 11:45:53;;;;;;;3.73;1.43;;;18.00;99.90;;;;;;5021328;28;21030;-70
2021/10/20 11:48:23;;;;;;;0.90;0.80;;;18.10;99.90;;;;;;5025025;28;20473;-71
2021/10/20 11:50:55;;;;;;;0.70;0.60;;;18.10;99.90;;;;;;5016920;28;20442;-70
2021/10/20 11:53:22;;;;;;;2.23;2.13;;;18.20;99.90;;;;;;5029922;28;20468;-69
2021/10/20 11:55:50;;;;;;;1.83;1.73;;;18.30;99.90;;;;;;5023405;28;20462;-70
2021/10/20 11:58:21;;;;;;;1.10;1.00;;;18.40;99.90;;;;;;5028823;28;20533;-70
2021/10/20 12:00:55;;;;;;;1.33;1.23;;;18.50;99.90;;;;;;5024945;28;20477;-70
2021/10/20 12:03:34;;;;;;;1.23;1.13;;;18.50;99.90;;;;;;5024912;28;20517;-70
2021/10/20 12:06:03;;;;;;;1.30;1.20;;;18.50;99.90;;;;;;5016101;28;20453;-69
2021/10/20 12:08:31;;;;;;;0.80;0.70;;;18.50;99.90;;;;;;5030816;28;20461;-69
2021/10/20 12:10:57;;;;;;;1.43;1.33;;;18.50;99.90;;;;;;5031549;28;20930;-69
2021/10/20 12:13:23;;;;;;;1.53;1.43;;;18.50;99.90;;;;;;5028593;28;20985;-72
2021/10/20 12:15:51;;;;;;;0.90;0.83;;;18.40;99.90;;;;;;5029478;28;20442;-69
2021/10/20 12:18:17;;;;;;;1.20;1.10;;;18.50;99.90;;;;;;5029733;28;20911;-70
2021/10/20 12:20:49;;;;;;;1.67;1.57;;;18.60;99.90;;;;;;5018172;28;20418;-70
2021/10/20 12:23:14;;;;;;;2.33;1.03;;;18.90;99.90;;;;;;5023863;28;20430;-70
2021/10/20 12:25:40;;;;;;;1.13;1.00;;;19.00;99.90;;;;;;5031831;28;20456;-70
2021/10/20 12:28:10;;;;;;;2.50;2.30;;;19.00;99.90;;;;;;5028818;28;20258;-70
2021/10/20 12:30:37;;;;;;;0.80;0.70;;;18.90;99.90;;;;;;5025322;28;20234;-70
2021/10/20 12:33:12;;;;;;;0.80;0.73;;;18.90;99.90;;;;;;5024042;28;20446;-68
2021/10/20 12:35:45;;;;;;;1.87;1.50;;;18.90;99.90;;;;;;5030971;28;20523;-69
2021/10/20 12:38:13;;;;;;;1.00;1.00;;;18.90;99.90;;;;;;5034715;28;20475;-70
2021/10/20 12:40:39;;;;;;;1.07;0.93;;;18.80;99.90;;;;;;5028913;28;20511;-70
2021/10/20 12:43:08;;;;;;;1.00;0.70;;;18.80;99.90;;;;;;5032367;28;20496;-70
2021/10/20 12:45:35;;;;;;;1.63;1.10;;;18.80;99.90;;;;;;5031570;28;20511;-70
2021/10/20 12:48:04;;;;;;;1.13;0.70;;;18.70;99.90;;;;;;5034085;28;20824;-70